sensor_id;sensor_type;location;lat;lon;timestamp;P1;durP1;ratioP1;P2;durP2;ratioP2
26042;SDS011;13818;52.156;5.382;2023-08-12T00:00:58;3.65;;;2.13;;
26042;SDS011;13818;52.156;5.382;2023-08-12T00:03:24;6.93;;;2.17;;
26042;SDS011;13818;52.156;5.382;2023-08-12T00:05:51;4.63;;;1.77;;
26042;SDS011;13818;52.156;5.382;2023-08-12T00:08:18;6.03;;;2.53;;
26042;SDS011;13818;52.156;5.382;2023-08-12T00:10:44;6.60;;;2.80;;
26042;SDS011;13818;52.156;5.382;2023-08-12T00:13:11;4.97;;;2.08;;
26042;SDS011;13818;52.156;5.382;2023-08-12T00:15:41;5.68;;;2.47;;
26042;SDS011;13818;52.156;5.382;2023-08-12T00:20:34;6.05;;;2.22;;
26042;SDS011;13818;52.156;5.382;2023-08-12T00:23:03;5.10;;;2.47;;
26042;SDS011;13818;52.156;5.382;2023-08-12T00:25:30;5.20;;;2.40;;
26042;SDS011;13818;52.156;5.382;2023-08-12T00:27:56;4.30;;;2.17;;
26042;SDS011;13818;52.156;5.382;2023-08-12T00:30:22;3.33;;;1.88;;
26042;SDS011;13818;52.156;5.382;2023-08-12T00:32:50;9.68;;;2.67;;
26042;SDS011;13818;52.156;5.382;2023-08-12T00:35:17;6.90;;;3.72;;
26042;SDS011;13818;52.156;5.382;2023-08-12T00:37:43;4.53;;;2.83;;
26042;SDS011;13818;52.156;5.382;2023-08-12T00:40:10;4.13;;;2.60;;
26042;SDS011;13818;52.156;5.382;2023-08-12T00:42:38;7.70;;;2.67;;
26042;SDS011;13818;52.156;5.382;2023-08-12T00:45:05;6.70;;;2.42;;
26042;SDS011;13818;52.156;5.382;2023-08-12T00:47:37;5.47;;;3.00;;
26042;SDS011;13818;52.156;5.382;2023-08-12T00:50:06;5.93;;;2.70;;
26042;SDS011;13818;52.156;5.382;2023-08-12T00:52:35;10.52;;;3.03;;
26042;SDS011;13818;52.156;5.382;2023-08-12T00:55:02;10.45;;;2.83;;
26042;SDS011;13818;52.156;5.382;2023-08-12T00:57:29;7.15;;;3.00;;
26042;SDS011;13818;52.156;5.382;2023-08-12T00:59:55;6.57;;;2.72;;
26042;SDS011;13818;52.156;5.382;2023-08-12T01:02:22;7.32;;;3.20;;
26042;SDS011;13818;52.156;5.382;2023-08-12T01:04:49;7.75;;;2.88;;
26042;SDS011;13818;52.156;5.382;2023-08-12T01:07:16;5.82;;;3.50;;
26042;SDS011;13818;52.156;5.382;2023-08-12T01:09:43;8.75;;;3.10;;
26042;SDS011;13818;52.156;5.382;2023-08-12T01:12:11;8.57;;;2.83;;
26042;SDS011;13818;52.156;5.382;2023-08-12T01:14:42;5.65;;;3.17;;
26042;SDS011;13818;52.156;5.382;2023-08-12T01:17:12;9.32;;;3.78;;
26042;SDS011;13818;52.156;5.382;2023-08-12T01:19:41;7.88;;;3.33;;
26042;SDS011;13818;52.156;5.382;2023-08-12T01:22:10;5.68;;;3.13;;
26042;SDS011;13818;52.156;5.382;2023-08-12T01:24:39;5.35;;;3.00;;
26042;SDS011;13818;52.156;5.382;2023-08-12T01:27:06;9.07;;;3.35;;
26042;SDS011;13818;52.156;5.382;2023-08-12T01:29:35;8.10;;;3.30;;
26042;SDS011;13818;52.156;5.382;2023-08-12T01:32:07;5.15;;;3.25;;
26042;SDS011;13818;52.156;5.382;2023-08-12T01:34:39;5.65;;;3.08;;
26042;SDS011;13818;52.156;5.382;2023-08-12T01:37:11;8.38;;;3.67;;
26042;SDS011;13818;52.156;5.382;2023-08-12T01:39:41;6.68;;;3.75;;
26042;SDS011;13818;52.156;5.382;2023-08-12T01:42:09;7.47;;;3.50;;
26042;SDS011;13818;52.156;5.382;2023-08-12T01:44:36;12.20;;;3.88;;
26042;SDS011;13818;52.156;5.382;2023-08-12T01:47:03;7.55;;;4.15;;
26042;SDS011;13818;52.156;5.382;2023-08-12T01:49:30;10.68;;;4.40;;
26042;SDS011;13818;52.156;5.382;2023-08-12T01:51:56;9.35;;;4.60;;
26042;SDS011;13818;52.156;5.382;2023-08-12T01:54:22;11.05;;;4.35;;
26042;SDS011;13818;52.156;5.382;2023-08-12T01:56:50;7.47;;;4.35;;
26042;SDS011;13818;52.156;5.382;2023-08-12T01:59:17;10.35;;;4.95;;
26042;SDS011;13818;52.156;5.382;2023-08-12T02:01:43;10.93;;;4.97;;
26042;SDS011;13818;52.156;5.382;2023-08-12T02:04:10;12.95;;;5.22;;
26042;SDS011;13818;52.156;5.382;2023-08-12T02:06:36;13.50;;;4.43;;
26042;SDS011;13818;52.156;5.382;2023-08-12T02:09:02;12.93;;;5.50;;
26042;SDS011;13818;52.156;5.382;2023-08-12T02:11:29;11.00;;;5.05;;
26042;SDS011;13818;52.156;5.382;2023-08-12T02:13:57;10.18;;;4.47;;
26042;SDS011;13818;52.156;5.382;2023-08-12T02:16:24;9.75;;;4.65;;
26042;SDS011;13818;52.156;5.382;2023-08-12T02:18:50;10.13;;;4.65;;
26042;SDS011;13818;52.156;5.382;2023-08-12T02:21:16;9.57;;;4.70;;
26042;SDS011;13818;52.156;5.382;2023-08-12T02:23:43;12.25;;;4.72;;
26042;SDS011;13818;52.156;5.382;2023-08-12T02:26:10;10.32;;;4.70;;
26042;SDS011;13818;52.156;5.382;2023-08-12T02:28:36;9.30;;;3.83;;
26042;SDS011;13818;52.156;5.382;2023-08-12T02:31:04;9.20;;;4.55;;
26042;SDS011;13818;52.156;5.382;2023-08-12T02:33:30;11.73;;;5.18;;
26042;SDS011;13818;52.156;5.382;2023-08-12T02:35:57;8.00;;;4.60;;
26042;SDS011;13818;52.156;5.382;2023-08-12T02:38:24;10.63;;;5.07;;
26042;SDS011;13818;52.156;5.382;2023-08-12T02:40:51;12.40;;;5.45;;
26042;SDS011;13818;52.156;5.382;2023-08-12T02:43:17;9.27;;;4.93;;
26042;SDS011;13818;52.156;5.382;2023-08-12T02:45:44;14.48;;;4.93;;
26042;SDS011;13818;52.156;5.382;2023-08-12T02:48:11;13.35;;;5.80;;
26042;SDS011;13818;52.156;5.382;2023-08-12T02:50:39;10.10;;;5.40;;
26042;SDS011;13818;52.156;5.382;2023-08-12T02:53:05;10.27;;;4.88;;
26042;SDS011;13818;52.156;5.382;2023-08-12T02:55:33;15.95;;;6.28;;
26042;SDS011;13818;52.156;5.382;2023-08-12T02:58:01;13.00;;;5.60;;
26042;SDS011;13818;52.156;5.382;2023-08-12T03:00:28;10.68;;;5.00;;
26042;SDS011;13818;52.156;5.382;2023-08-12T03:02:54;13.05;;;5.95;;
26042;SDS011;13818;52.156;5.382;2023-08-12T03:05:22;15.40;;;6.15;;
26042;SDS011;13818;52.156;5.382;2023-08-12T03:07:49;12.10;;;5.65;;
26042;SDS011;13818;52.156;5.382;2023-08-12T03:10:16;15.32;;;6.40;;
26042;SDS011;13818;52.156;5.382;2023-08-12T03:12:43;12.50;;;5.90;;
26042;SDS011;13818;52.156;5.382;2023-08-12T03:15:10;10.38;;;4.78;;
26042;SDS011;13818;52.156;5.382;2023-08-12T03:17:36;14.07;;;5.57;;
26042;SDS011;13818;52.156;5.382;2023-08-12T03:20:04;11.25;;;5.85;;
26042;SDS011;13818;52.156;5.382;2023-08-12T03:22:35;12.20;;;5.90;;
26042;SDS011;13818;52.156;5.382;2023-08-12T03:27:28;14.40;;;6.70;;
26042;SDS011;13818;52.156;5.382;2023-08-12T03:29:55;15.52;;;6.10;;
26042;SDS011;13818;52.156;5.382;2023-08-12T03:32:21;12.70;;;5.53;;
26042;SDS011;13818;52.156;5.382;2023-08-12T03:34:48;13.93;;;7.20;;
26042;SDS011;13818;52.156;5.382;2023-08-12T03:37:14;12.07;;;6.10;;
26042;SDS011;13818;52.156;5.382;2023-08-12T03:39:42;13.60;;;5.80;;
26042;SDS011;13818;52.156;5.382;2023-08-12T03:42:08;14.48;;;6.35;;
26042;SDS011;13818;52.156;5.382;2023-08-12T03:44:34;14.82;;;6.00;;
26042;SDS011;13818;52.156;5.382;2023-08-12T03:47:01;12.55;;;5.95;;
26042;SDS011;13818;52.156;5.382;2023-08-12T03:49:28;13.30;;;6.18;;
26042;SDS011;13818;52.156;5.382;2023-08-12T03:51:54;17.48;;;6.18;;
26042;SDS011;13818;52.156;5.382;2023-08-12T03:54:20;12.50;;;6.07;;
26042;SDS011;13818;52.156;5.382;2023-08-12T03:56:48;13.25;;;6.65;;
26042;SDS011;13818;52.156;5.382;2023-08-12T03:59:15;12.85;;;6.63;;
26042;SDS011;13818;52.156;5.382;2023-08-12T04:01:41;11.85;;;6.13;;
26042;SDS011;13818;52.156;5.382;2023-08-12T04:04:08;15.65;;;6.28;;
26042;SDS011;13818;52.156;5.382;2023-08-12T04:06:34;15.73;;;6.70;;
26042;SDS011;13818;52.156;5.382;2023-08-12T04:09:00;14.80;;;6.72;;
26042;SDS011;13818;52.156;5.382;2023-08-12T04:11:27;14.90;;;6.78;;
26042;SDS011;13818;52.156;5.382;2023-08-12T04:13:55;13.18;;;6.50;;
26042;SDS011;13818;52.156;5.382;2023-08-12T04:16:21;12.48;;;6.57;;
26042;SDS011;13818;52.156;5.382;2023-08-12T04:18:48;15.23;;;7.10;;
26042;SDS011;13818;52.156;5.382;2023-08-12T04:21:14;14.15;;;6.25;;
26042;SDS011;13818;52.156;5.382;2023-08-12T04:23:41;18.55;;;7.07;;
26042;SDS011;13818;52.156;5.382;2023-08-12T04:26:07;13.05;;;6.82;;
26042;SDS011;13818;52.156;5.382;2023-08-12T04:28:33;16.08;;;6.57;;
26042;SDS011;13818;52.156;5.382;2023-08-12T04:31:05;12.05;;;7.53;;
26042;SDS011;13818;52.156;5.382;2023-08-12T04:33:32;17.30;;;7.38;;
26042;SDS011;13818;52.156;5.382;2023-08-12T04:35:59;20.58;;;7.78;;
26042;SDS011;13818;52.156;5.382;2023-08-12T04:38:25;13.77;;;7.72;;
26042;SDS011;13818;52.156;5.382;2023-08-12T04:40:53;19.00;;;8.38;;
26042;SDS011;13818;52.156;5.382;2023-08-12T04:43:20;17.42;;;7.95;;
26042;SDS011;13818;52.156;5.382;2023-08-12T04:45:46;15.55;;;8.32;;
26042;SDS011;13818;52.156;5.382;2023-08-12T04:48:14;17.67;;;8.77;;
26042;SDS011;13818;52.156;5.382;2023-08-12T04:50:41;16.83;;;9.35;;
26042;SDS011;13818;52.156;5.382;2023-08-12T04:53:07;18.80;;;8.75;;
26042;SDS011;13818;52.156;5.382;2023-08-12T04:55:34;14.88;;;7.80;;
26042;SDS011;13818;52.156;5.382;2023-08-12T04:58:01;16.33;;;8.50;;
26042;SDS011;13818;52.156;5.382;2023-08-12T05:00:27;17.17;;;8.30;;
26042;SDS011;13818;52.156;5.382;2023-08-12T05:02:54;19.80;;;8.50;;
26042;SDS011;13818;52.156;5.382;2023-08-12T05:05:21;16.42;;;7.97;;
26042;SDS011;13818;52.156;5.382;2023-08-12T05:07:48;16.63;;;7.82;;
26042;SDS011;13818;52.156;5.382;2023-08-12T05:10:15;16.92;;;7.43;;
26042;SDS011;13818;52.156;5.382;2023-08-12T05:12:41;16.05;;;7.97;;
26042;SDS011;13818;52.156;5.382;2023-08-12T05:15:08;15.73;;;8.25;;
26042;SDS011;13818;52.156;5.382;2023-08-12T05:17:35;14.38;;;7.40;;
26042;SDS011;13818;52.156;5.382;2023-08-12T05:20:01;14.43;;;7.28;;
26042;SDS011;13818;52.156;5.382;2023-08-12T05:22:29;13.13;;;7.22;;
26042;SDS011;13818;52.156;5.382;2023-08-12T05:24:55;14.65;;;7.38;;
26042;SDS011;13818;52.156;5.382;2023-08-12T05:27:22;11.85;;;6.47;;
26042;SDS011;13818;52.156;5.382;2023-08-12T05:29:48;15.05;;;6.88;;
26042;SDS011;13818;52.156;5.382;2023-08-12T05:32:15;13.95;;;5.95;;
26042;SDS011;13818;52.156;5.382;2023-08-12T05:34:41;13.10;;;6.85;;
26042;SDS011;13818;52.156;5.382;2023-08-12T05:37:07;15.77;;;7.30;;
26042;SDS011;13818;52.156;5.382;2023-08-12T05:39:35;13.30;;;6.05;;
26042;SDS011;13818;52.156;5.382;2023-08-12T05:42:02;13.20;;;6.78;;
26042;SDS011;13818;52.156;5.382;2023-08-12T05:44:28;15.77;;;6.95;;
26042;SDS011;13818;52.156;5.382;2023-08-12T05:46:55;12.75;;;6.18;;
26042;SDS011;13818;52.156;5.382;2023-08-12T05:49:21;13.95;;;6.53;;
26042;SDS011;13818;52.156;5.382;2023-08-12T05:51:48;8.93;;;5.43;;
26042;SDS011;13818;52.156;5.382;2023-08-12T05:54:14;13.80;;;6.22;;
26042;SDS011;13818;52.156;5.382;2023-08-12T05:56:42;14.98;;;6.43;;
26042;SDS011;13818;52.156;5.382;2023-08-12T05:59:08;12.45;;;6.30;;
26042;SDS011;13818;52.156;5.382;2023-08-12T06:01:35;13.45;;;7.00;;
26042;SDS011;13818;52.156;5.382;2023-08-12T06:04:01;13.30;;;6.75;;
26042;SDS011;13818;52.156;5.382;2023-08-12T06:06:28;14.82;;;6.30;;
26042;SDS011;13818;52.156;5.382;2023-08-12T06:08:54;11.05;;;6.57;;
26042;SDS011;13818;52.156;5.382;2023-08-12T06:11:21;14.68;;;6.13;;
26042;SDS011;13818;52.156;5.382;2023-08-12T06:13:48;12.73;;;7.00;;
26042;SDS011;13818;52.156;5.382;2023-08-12T06:16:15;11.57;;;6.65;;
26042;SDS011;13818;52.156;5.382;2023-08-12T06:18:41;11.43;;;6.68;;
26042;SDS011;13818;52.156;5.382;2023-08-12T06:21:08;10.13;;;5.43;;
26042;SDS011;13818;52.156;5.382;2023-08-12T06:23:34;14.20;;;6.20;;
26042;SDS011;13818;52.156;5.382;2023-08-12T06:26:00;13.70;;;5.22;;
26042;SDS011;13818;52.156;5.382;2023-08-12T06:28:27;9.23;;;5.20;;
26042;SDS011;13818;52.156;5.382;2023-08-12T06:30:55;11.57;;;6.07;;
26042;SDS011;13818;52.156;5.382;2023-08-12T06:33:21;10.43;;;5.57;;
26042;SDS011;13818;52.156;5.382;2023-08-12T06:35:48;9.13;;;5.25;;
26042;SDS011;13818;52.156;5.382;2023-08-12T06:40:42;10.57;;;5.47;;
26042;SDS011;13818;52.156;5.382;2023-08-12T06:43:08;8.90;;;5.20;;
26042;SDS011;13818;52.156;5.382;2023-08-12T06:45:35;11.02;;;4.70;;
26042;SDS011;13818;52.156;5.382;2023-08-12T06:48:03;7.57;;;4.30;;
26042;SDS011;13818;52.156;5.382;2023-08-12T06:50:30;9.65;;;5.10;;
26042;SDS011;13818;52.156;5.382;2023-08-12T06:52:58;8.43;;;4.90;;
26042;SDS011;13818;52.156;5.382;2023-08-12T06:55:24;11.45;;;4.72;;
26042;SDS011;13818;52.156;5.382;2023-08-12T06:57:51;8.30;;;4.05;;
26042;SDS011;13818;52.156;5.382;2023-08-12T07:00:17;8.10;;;3.63;;
26042;SDS011;13818;52.156;5.382;2023-08-12T07:02:44;6.40;;;3.95;;
26042;SDS011;13818;52.156;5.382;2023-08-12T07:05:12;6.85;;;3.67;;
26042;SDS011;13818;52.156;5.382;2023-08-12T07:07:38;6.03;;;3.30;;
26042;SDS011;13818;52.156;5.382;2023-08-12T07:10:05;6.78;;;3.53;;
26042;SDS011;13818;52.156;5.382;2023-08-12T07:12:32;4.38;;;2.92;;
26042;SDS011;13818;52.156;5.382;2023-08-12T07:14:59;4.70;;;2.75;;
26042;SDS011;13818;52.156;5.382;2023-08-12T07:17:26;5.05;;;2.85;;
26042;SDS011;13818;52.156;5.382;2023-08-12T07:19:52;4.50;;;2.78;;
26042;SDS011;13818;52.156;5.382;2023-08-12T07:22:20;5.85;;;2.63;;
26042;SDS011;13818;52.156;5.382;2023-08-12T07:24:46;5.03;;;2.78;;
26042;SDS011;13818;52.156;5.382;2023-08-12T07:27:13;5.53;;;2.40;;
26042;SDS011;13818;52.156;5.382;2023-08-12T07:29:39;6.85;;;2.80;;
26042;SDS011;13818;52.156;5.382;2023-08-12T07:32:05;5.28;;;3.05;;
26042;SDS011;13818;52.156;5.382;2023-08-12T07:34:32;3.67;;;2.42;;
26042;SDS011;13818;52.156;5.382;2023-08-12T07:36:58;3.70;;;2.63;;
26042;SDS011;13818;52.156;5.382;2023-08-12T07:39:26;5.70;;;2.72;;
26042;SDS011;13818;52.156;5.382;2023-08-12T07:41:52;3.55;;;2.10;;
26042;SDS011;13818;52.156;5.382;2023-08-12T07:44:19;3.83;;;2.28;;
26042;SDS011;13818;52.156;5.382;2023-08-12T07:46:45;3.55;;;1.77;;
26042;SDS011;13818;52.156;5.382;2023-08-12T07:49:12;5.03;;;2.05;;
26042;SDS011;13818;52.156;5.382;2023-08-12T07:51:39;2.97;;;1.58;;
26042;SDS011;13818;52.156;5.382;2023-08-12T07:54:05;3.47;;;2.13;;
26042;SDS011;13818;52.156;5.382;2023-08-12T07:56:33;2.47;;;1.88;;
26042;SDS011;13818;52.156;5.382;2023-08-12T07:59:00;3.08;;;1.73;;
26042;SDS011;13818;52.156;5.382;2023-08-12T08:01:26;3.42;;;1.95;;
26042;SDS011;13818;52.156;5.382;2023-08-12T08:03:53;5.35;;;2.17;;
26042;SDS011;13818;52.156;5.382;2023-08-12T08:06:19;2.95;;;1.67;;
26042;SDS011;13818;52.156;5.382;2023-08-12T08:08:48;9.15;;;2.10;;
26042;SDS011;13818;52.156;5.382;2023-08-12T08:11:15;3.92;;;2.10;;
26042;SDS011;13818;52.156;5.382;2023-08-12T08:13:43;4.32;;;2.08;;
26042;SDS011;13818;52.156;5.382;2023-08-12T08:16:09;2.75;;;1.70;;
26042;SDS011;13818;52.156;5.382;2023-08-12T08:18:36;4.60;;;2.00;;
26042;SDS011;13818;52.156;5.382;2023-08-12T08:21:02;6.95;;;1.98;;
26042;SDS011;13818;52.156;5.382;2023-08-12T08:23:29;5.90;;;2.65;;
26042;SDS011;13818;52.156;5.382;2023-08-12T08:25:55;6.18;;;2.90;;
26042;SDS011;13818;52.156;5.382;2023-08-12T08:28:22;4.43;;;1.77;;
26042;SDS011;13818;52.156;5.382;2023-08-12T08:30:49;2.03;;;1.33;;
26042;SDS011;13818;52.156;5.382;2023-08-12T08:33:16;2.83;;;1.50;;
26042;SDS011;13818;52.156;5.382;2023-08-12T08:35:45;2.17;;;1.45;;
26042;SDS011;13818;52.156;5.382;2023-08-12T08:38:17;2.30;;;1.42;;
26042;SDS011;13818;52.156;5.382;2023-08-12T08:40:43;3.15;;;1.52;;
26042;SDS011;13818;52.156;5.382;2023-08-12T08:43:10;4.13;;;1.70;;
26042;SDS011;13818;52.156;5.382;2023-08-12T08:45:41;2.17;;;1.27;;
26042;SDS011;13818;52.156;5.382;2023-08-12T08:48:11;2.50;;;1.20;;
26042;SDS011;13818;52.156;5.382;2023-08-12T08:50:38;1.88;;;0.98;;
26042;SDS011;13818;52.156;5.382;2023-08-12T08:53:07;1.75;;;1.05;;
26042;SDS011;13818;52.156;5.382;2023-08-12T08:55:35;2.42;;;1.15;;
26042;SDS011;13818;52.156;5.382;2023-08-12T08:58:02;2.53;;;0.95;;
26042;SDS011;13818;52.156;5.382;2023-08-12T09:00:29;4.10;;;1.05;;
26042;SDS011;13818;52.156;5.382;2023-08-12T09:02:56;2.58;;;1.13;;
26042;SDS011;13818;52.156;5.382;2023-08-12T09:05:25;1.65;;;0.77;;
26042;SDS011;13818;52.156;5.382;2023-08-12T09:07:52;1.40;;;0.70;;
26042;SDS011;13818;52.156;5.382;2023-08-12T09:10:20;1.50;;;0.60;;
26042;SDS011;13818;52.156;5.382;2023-08-12T09:12:47;2.53;;;0.98;;
26042;SDS011;13818;52.156;5.382;2023-08-12T09:15:15;1.33;;;0.73;;
26042;SDS011;13818;52.156;5.382;2023-08-12T09:17:42;1.00;;;0.45;;
26042;SDS011;13818;52.156;5.382;2023-08-12T09:20:09;1.45;;;0.73;;
26042;SDS011;13818;52.156;5.382;2023-08-12T09:22:38;2.65;;;0.70;;
26042;SDS011;13818;52.156;5.382;2023-08-12T09:25:06;4.03;;;1.02;;
26042;SDS011;13818;52.156;5.382;2023-08-12T09:27:35;1.23;;;0.70;;
26042;SDS011;13818;52.156;5.382;2023-08-12T09:30:02;3.05;;;0.95;;
26042;SDS011;13818;52.156;5.382;2023-08-12T09:32:30;1.80;;;0.90;;
26042;SDS011;13818;52.156;5.382;2023-08-12T09:34:59;3.28;;;0.82;;
26042;SDS011;13818;52.156;5.382;2023-08-12T09:37:28;3.28;;;0.80;;
26042;SDS011;13818;52.156;5.382;2023-08-12T09:39:56;3.40;;;0.82;;
26042;SDS011;13818;52.156;5.382;2023-08-12T09:42:24;4.63;;;1.25;;
26042;SDS011;13818;52.156;5.382;2023-08-12T09:44:51;3.63;;;1.23;;
26042;SDS011;13818;52.156;5.382;2023-08-12T09:47:17;2.55;;;0.90;;
26042;SDS011;13818;52.156;5.382;2023-08-12T09:49:44;2.17;;;0.75;;
26042;SDS011;13818;52.156;5.382;2023-08-12T09:52:10;1.48;;;0.80;;
26042;SDS011;13818;52.156;5.382;2023-08-12T09:54:38;2.85;;;1.10;;
26042;SDS011;13818;52.156;5.382;2023-08-12T09:57:06;4.15;;;1.02;;
26042;SDS011;13818;52.156;5.382;2023-08-12T09:59:34;2.80;;;0.88;;
26042;SDS011;13818;52.156;5.382;2023-08-12T10:02:01;4.18;;;1.10;;
26042;SDS011;13818;52.156;5.382;2023-08-12T10:04:32;1.80;;;0.90;;
26042;SDS011;13818;52.156;5.382;2023-08-12T10:07:05;1.80;;;0.88;;
26042;SDS011;13818;52.156;5.382;2023-08-12T10:09:31;2.90;;;0.93;;
26042;SDS011;13818;52.156;5.382;2023-08-12T10:11:59;2.58;;;0.80;;
26042;SDS011;13818;52.156;5.382;2023-08-12T10:14:27;4.65;;;1.00;;
26042;SDS011;13818;52.156;5.382;2023-08-12T10:16:54;3.00;;;0.98;;
26042;SDS011;13818;52.156;5.382;2023-08-12T10:19:21;3.20;;;0.80;;
26042;SDS011;13818;52.156;5.382;2023-08-12T10:21:50;3.05;;;0.85;;
26042;SDS011;13818;52.156;5.382;2023-08-12T10:24:20;3.00;;;0.93;;
26042;SDS011;13818;52.156;5.382;2023-08-12T10:26:47;4.70;;;1.00;;
26042;SDS011;13818;52.156;5.382;2023-08-12T10:29:16;4.03;;;1.52;;
26042;SDS011;13818;52.156;5.382;2023-08-12T10:31:44;5.35;;;0.85;;
26042;SDS011;13818;52.156;5.382;2023-08-12T10:34:17;6.13;;;0.80;;
26042;SDS011;13818;52.156;5.382;2023-08-12T10:36:44;3.22;;;0.90;;
26042;SDS011;13818;52.156;5.382;2023-08-12T10:39:11;2.10;;;0.68;;
26042;SDS011;13818;52.156;5.382;2023-08-12T10:41:39;4.85;;;1.30;;
26042;SDS011;13818;52.156;5.382;2023-08-12T10:44:17;2.78;;;0.82;;
26042;SDS011;13818;52.156;5.382;2023-08-12T10:46:51;2.25;;;0.80;;
26042;SDS011;13818;52.156;5.382;2023-08-12T10:49:18;4.80;;;0.52;;
26042;SDS011;13818;52.156;5.382;2023-08-12T10:51:47;1.83;;;0.80;;
26042;SDS011;13818;52.156;5.382;2023-08-12T10:54:18;2.78;;;1.00;;
26042;SDS011;13818;52.156;5.382;2023-08-12T10:57:08;3.90;;;0.98;;
26042;SDS011;13818;52.156;5.382;2023-08-12T10:59:51;1.55;;;0.80;;
26042;SDS011;13818;52.156;5.382;2023-08-12T11:02:21;2.55;;;0.85;;
26042;SDS011;13818;52.156;5.382;2023-08-12T11:04:49;3.35;;;1.00;;
26042;SDS011;13818;52.156;5.382;2023-08-12T11:07:18;1.80;;;1.02;;
26042;SDS011;13818;52.156;5.382;2023-08-12T11:09:45;3.90;;;1.10;;
26042;SDS011;13818;52.156;5.382;2023-08-12T11:12:16;2.88;;;0.90;;
26042;SDS011;13818;52.156;5.382;2023-08-12T11:14:47;5.05;;;0.98;;
26042;SDS011;13818;52.156;5.382;2023-08-12T11:17:14;4.20;;;1.30;;
26042;SDS011;13818;52.156;5.382;2023-08-12T11:19:43;4.10;;;1.20;;
26042;SDS011;13818;52.156;5.382;2023-08-12T11:22:09;7.57;;;1.25;;
26042;SDS011;13818;52.156;5.382;2023-08-12T11:27:05;5.30;;;1.10;;
26042;SDS011;13818;52.156;5.382;2023-08-12T11:29:32;3.72;;;1.10;;
26042;SDS011;13818;52.156;5.382;2023-08-12T11:31:59;4.40;;;0.77;;
26042;SDS011;13818;52.156;5.382;2023-08-12T11:34:25;4.35;;;1.00;;
26042;SDS011;13818;52.156;5.382;2023-08-12T11:36:53;3.33;;;0.75;;
26042;SDS011;13818;52.156;5.382;2023-08-12T11:39:20;4.78;;;1.00;;
26042;SDS011;13818;52.156;5.382;2023-08-12T11:44:15;4.13;;;0.73;;
26042;SDS011;13818;52.156;5.382;2023-08-12T11:46:42;3.10;;;0.77;;
26042;SDS011;13818;52.156;5.382;2023-08-12T11:49:09;4.13;;;1.00;;
26042;SDS011;13818;52.156;5.382;2023-08-12T11:51:35;3.33;;;0.90;;
26042;SDS011;13818;52.156;5.382;2023-08-12T11:54:03;3.10;;;1.10;;
26042;SDS011;13818;52.156;5.382;2023-08-12T11:56:30;2.38;;;0.73;;
26042;SDS011;13818;52.156;5.382;2023-08-12T11:58:57;5.32;;;1.20;;
26042;SDS011;13818;52.156;5.382;2023-08-12T12:01:24;3.97;;;0.82;;
26042;SDS011;13818;52.156;5.382;2023-08-12T12:03:51;4.07;;;1.00;;
26042;SDS011;13818;52.156;5.382;2023-08-12T12:06:17;3.00;;;0.88;;
26042;SDS011;13818;52.156;5.382;2023-08-12T12:08:53;1.48;;;0.80;;
26042;SDS011;13818;52.156;5.382;2023-08-12T12:11:21;3.40;;;0.95;;
26042;SDS011;13818;52.156;5.382;2023-08-12T12:13:48;2.20;;;0.77;;
26042;SDS011;13818;52.156;5.382;2023-08-12T12:16:14;2.28;;;0.77;;
26042;SDS011;13818;52.156;5.382;2023-08-12T12:18:41;2.63;;;0.70;;
26042;SDS011;13818;52.156;5.382;2023-08-12T12:21:08;3.17;;;0.88;;
26042;SDS011;13818;52.156;5.382;2023-08-12T12:23:34;3.25;;;0.98;;
26042;SDS011;13818;52.156;5.382;2023-08-12T12:26:03;3.58;;;1.08;;
26042;SDS011;13818;52.156;5.382;2023-08-12T12:28:32;3.35;;;0.82;;
26042;SDS011;13818;52.156;5.382;2023-08-12T12:30:58;2.22;;;0.75;;
26042;SDS011;13818;52.156;5.382;2023-08-12T12:33:25;2.65;;;0.75;;
26042;SDS011;13818;52.156;5.382;2023-08-12T12:35:53;5.80;;;0.90;;
26042;SDS011;13818;52.156;5.382;2023-08-12T12:38:20;2.17;;;0.90;;
26042;SDS011;13818;52.156;5.382;2023-08-12T12:40:46;2.13;;;0.75;;
26042;SDS011;13818;52.156;5.382;2023-08-12T12:43:13;6.38;;;0.90;;
26042;SDS011;13818;52.156;5.382;2023-08-12T12:45:41;5.70;;;1.30;;
26042;SDS011;13818;52.156;5.382;2023-08-12T12:48:07;2.70;;;0.77;;
26042;SDS011;13818;52.156;5.382;2023-08-12T12:50:33;3.13;;;0.73;;
26042;SDS011;13818;52.156;5.382;2023-08-12T12:53:00;3.15;;;0.88;;
26042;SDS011;13818;52.156;5.382;2023-08-12T12:55:27;3.08;;;0.80;;
26042;SDS011;13818;52.156;5.382;2023-08-12T12:57:53;3.45;;;0.60;;
26042;SDS011;13818;52.156;5.382;2023-08-12T13:00:20;6.82;;;0.93;;
26042;SDS011;13818;52.156;5.382;2023-08-12T13:02:48;2.53;;;1.00;;
26042;SDS011;13818;52.156;5.382;2023-08-12T13:07:40;3.70;;;0.60;;
26042;SDS011;13818;52.156;5.382;2023-08-12T13:10:07;4.47;;;0.88;;
26042;SDS011;13818;52.156;5.382;2023-08-12T13:12:34;3.35;;;1.02;;
26042;SDS011;13818;52.156;5.382;2023-08-12T13:15:01;2.20;;;1.17;;
26042;SDS011;13818;52.156;5.382;2023-08-12T13:17:27;3.17;;;1.02;;
26042;SDS011;13818;52.156;5.382;2023-08-12T13:19:55;7.28;;;1.42;;
26042;SDS011;13818;52.156;5.382;2023-08-12T13:22:22;3.40;;;1.05;;
26042;SDS011;13818;52.156;5.382;2023-08-12T13:24:48;3.80;;;1.10;;
26042;SDS011;13818;52.156;5.382;2023-08-12T13:27:15;5.60;;;1.20;;
26042;SDS011;13818;52.156;5.382;2023-08-12T13:29:42;4.78;;;0.77;;
26042;SDS011;13818;52.156;5.382;2023-08-12T13:32:09;2.20;;;0.95;;
26042;SDS011;13818;52.156;5.382;2023-08-12T13:34:36;4.97;;;0.95;;
26042;SDS011;13818;52.156;5.382;2023-08-12T13:37:04;6.97;;;1.27;;
26042;SDS011;13818;52.156;5.382;2023-08-12T13:41:57;3.80;;;1.08;;
26042;SDS011;13818;52.156;5.382;2023-08-12T13:44:24;3.50;;;0.93;;
26042;SDS011;13818;52.156;5.382;2023-08-12T13:46:50;6.63;;;1.30;;
26042;SDS011;13818;52.156;5.382;2023-08-12T13:49:16;6.40;;;1.33;;
26042;SDS011;13818;52.156;5.382;2023-08-12T13:51:43;2.75;;;0.95;;
26042;SDS011;13818;52.156;5.382;2023-08-12T13:54:10;3.47;;;1.17;;
26042;SDS011;13818;52.156;5.382;2023-08-12T13:56:37;3.22;;;0.90;;
26042;SDS011;13818;52.156;5.382;2023-08-12T13:59:03;4.55;;;1.00;;
26042;SDS011;13818;52.156;5.382;2023-08-12T14:01:30;6.30;;;1.30;;
26042;SDS011;13818;52.156;5.382;2023-08-12T14:03:57;5.45;;;1.10;;
26042;SDS011;13818;52.156;5.382;2023-08-12T14:06:23;2.55;;;0.60;;
26042;SDS011;13818;52.156;5.382;2023-08-12T14:08:50;4.43;;;1.00;;
26042;SDS011;13818;52.156;5.382;2023-08-12T14:11:17;6.28;;;1.00;;
26042;SDS011;13818;52.156;5.382;2023-08-12T14:13:45;2.78;;;1.02;;
26042;SDS011;13818;52.156;5.382;2023-08-12T14:16:12;4.25;;;1.17;;
26042;SDS011;13818;52.156;5.382;2023-08-12T14:18:38;2.25;;;1.00;;
26042;SDS011;13818;52.156;5.382;2023-08-12T14:21:05;3.33;;;0.77;;
26042;SDS011;13818;52.156;5.382;2023-08-12T14:23:31;3.10;;;0.63;;
26042;SDS011;13818;52.156;5.382;2023-08-12T14:25:58;6.38;;;1.20;;
26042;SDS011;13818;52.156;5.382;2023-08-12T14:28:26;6.88;;;1.30;;
26042;SDS011;13818;52.156;5.382;2023-08-12T14:33:19;6.65;;;1.30;;
26042;SDS011;13818;52.156;5.382;2023-08-12T14:35:48;7.72;;;0.85;;
26042;SDS011;13818;52.156;5.382;2023-08-12T14:38:14;6.90;;;1.00;;
26042;SDS011;13818;52.156;5.382;2023-08-12T14:40:41;3.47;;;1.08;;
26042;SDS011;13818;52.156;5.382;2023-08-12T14:43:07;4.05;;;1.17;;
26042;SDS011;13818;52.156;5.382;2023-08-12T14:45:35;3.10;;;0.85;;
26042;SDS011;13818;52.156;5.382;2023-08-12T14:50:28;3.33;;;0.73;;
26042;SDS011;13818;52.156;5.382;2023-08-12T14:52:55;4.03;;;1.35;;
26042;SDS011;13818;52.156;5.382;2023-08-12T14:55:21;2.58;;;0.70;;
26042;SDS011;13818;52.156;5.382;2023-08-12T14:57:47;4.38;;;1.00;;
26042;SDS011;13818;52.156;5.382;2023-08-12T15:00:14;4.22;;;0.65;;
26042;SDS011;13818;52.156;5.382;2023-08-12T15:02:42;4.55;;;1.10;;
26042;SDS011;13818;52.156;5.382;2023-08-12T15:07:35;6.72;;;1.08;;